Terminal Aerodrome Forecast
Issued by NWS Jackson, MS

Home | Current Version | Previous Version | Text Only | Print | Product List | Glossary On
Versions: 1 2 3 4 5 6 7 8 9 10 11 12 13 14 15 16 17 18 19 20 21 22 23 24 25
000
FTUS44 KJAN 022300 RRA
TAFJAN
TAF
KJAN 022351Z 0300/0324 VRB05KT 5SM SHRA VCTS FEW015 BKN030CB OVC100
     FM030130 VRB04KT P6SM VCSH FEW015 SCT060 BKN120
     FM030330 18005KT 6SM BR FEW015 SCT060 BKN150
     FM030700 VRB04KT 5SM BR FEW060 SCT150
     FM031100 VRB04KT 2SM BR SCT006 SCT060 SCT200
     FM031330 30004KT P6SM FEW025 SCT250=

USA.gov is the U.S. government's official web portal to all federal, state and local government web resources and services.